createdAt,value
2018-07-22T00:01:00.658Z,18.39
2018-07-22T00:02:09.303Z,18.27
2018-07-22T00:03:17.951Z,18.31
2018-07-22T00:04:26.602Z,18.33
2018-07-22T00:05:35.246Z,18.23
2018-07-22T00:06:43.892Z,18.26
2018-07-22T00:07:52.545Z,18.26
2018-07-22T00:09:01.182Z,18.26
2018-07-22T00:10:09.832Z,18.26
2018-07-22T00:11:18.487Z,18.27
2018-07-22T00:12:27.395Z,18.28
2018-07-22T00:13:36.043Z,18.27
2018-07-22T00:14:44.683Z,18.23
2018-07-22T00:15:53.339Z,18.26
2018-07-22T00:17:02.290Z,18.26
2018-07-22T00:18:10.947Z,18.26
2018-07-22T00:19:19.591Z,18.19
2018-07-22T00:20:28.244Z,18.23
2018-07-22T00:21:36.889Z,18.19
2018-07-22T00:22:45.544Z,18.21
2018-07-22T00:23:54.185Z,18.24
2018-07-22T00:25:02.827Z,18.23
2018-07-22T00:26:11.741Z,18.24
2018-07-22T00:27:20.398Z,18.21
2018-07-22T00:28:29.044Z,18.24
2018-07-22T00:29:37.688Z,18.18
2018-07-22T00:30:46.334Z,18.16
2018-07-22T00:31:54.978Z,18.18
2018-07-22T00:33:03.907Z,18.23
2018-07-22T00:34:12.810Z,18.18
2018-07-22T00:35:21.724Z,18.12
2018-07-22T00:36:30.362Z,18.21
2018-07-22T00:37:39.024Z,18.06
2018-07-22T00:38:47.666Z,18.11
2018-07-22T00:39:56.320Z,18.09
2018-07-22T00:41:04.959Z,18.09
2018-07-22T00:42:13.617Z,18.16
2018-07-22T00:43:22.263Z,18.03
2018-07-22T00:44:30.912Z,18.05
2018-07-22T00:45:39.549Z,18.06
2018-07-22T00:46:48.200Z,17.97
2018-07-22T00:47:56.850Z,17.9
2018-07-22T00:49:05.755Z,17.9
2018-07-22T00:50:14.658Z,17.98
2018-07-22T00:51:23.314Z,17.94
2018-07-22T00:52:31.956Z,17.97
2018-07-22T00:53:40.615Z,17.87
2018-07-22T00:54:49.247Z,17.82
2018-07-22T00:55:57.902Z,17.78
2018-07-22T00:57:06.545Z,17.76
2018-07-22T00:58:15.198Z,17.78
2018-07-22T00:59:23.841Z,17.86
2018-07-22T01:00:32.499Z,17.84
2018-07-22T01:01:41.408Z,17.82
2018-07-22T01:02:50.054Z,17.84
2018-07-22T01:03:58.691Z,17.82
2018-07-22T01:05:07.342Z,17.82
2018-07-22T01:06:15.993Z,17.87
2018-07-22T01:07:24.643Z,17.84
2018-07-22T01:08:33.292Z,17.84
2018-07-22T01:09:41.934Z,17.8
2018-07-22T01:10:50.583Z,17.84
2018-07-22T01:11:59.225Z,17.8
2018-07-22T01:13:07.879Z,17.86
2018-07-22T01:14:16.513Z,17.8
2018-07-22T01:15:25.164Z,17.75
2018-07-22T01:16:34.075Z,17.82
2018-07-22T01:17:42.730Z,17.8
2018-07-22T01:18:51.366Z,17.82
2018-07-22T01:20:00.017Z,17.79
2018-07-22T01:21:08.928Z,17.82
2018-07-22T01:22:17.583Z,17.84
2018-07-22T01:23:26.228Z,17.79
2018-07-22T01:24:35.137Z,17.8
2018-07-22T01:25:43.783Z,17.79
2018-07-22T01:26:52.425Z,17.82
2018-07-22T01:28:01.082Z,17.75
2018-07-22T01:29:09.724Z,17.78
2018-07-22T01:30:18.378Z,17.79
2018-07-22T01:31:27.022Z,17.76
2018-07-22T01:32:35.679Z,17.72
2018-07-22T01:33:44.321Z,17.66
2018-07-22T01:34:52.971Z,17.73
2018-07-22T01:36:01.613Z,17.68
2018-07-22T01:37:10.270Z,17.63
2018-07-22T01:38:18.916Z,17.72
2018-07-22T01:39:27.828Z,17.65
2018-07-22T01:40:36.466Z,17.65
2018-07-22T01:41:45.115Z,17.66
2018-07-22T01:42:53.766Z,17.6
2018-07-22T01:44:02.415Z,17.56
2018-07-22T01:45:11.065Z,17.56
2018-07-22T01:46:19.701Z,17.49
2018-07-22T01:47:28.616Z,17.52
2018-07-22T01:48:37.266Z,17.53
2018-07-22T01:49:45.917Z,17.49
2018-07-22T01:50:54.559Z,17.46
2018-07-22T01:52:03.465Z,17.37
2018-07-22T01:53:12.114Z,17.47
2018-07-22T01:54:20.763Z,17.47
2018-07-22T01:55:29.405Z,17.46
2018-07-22T01:56:38.054Z,17.54
2018-07-22T01:57:46.697Z,17.46
2018-07-22T01:58:55.347Z,17.49
2018-07-22T02:00:04.002Z,17.47
2018-07-22T02:01:12.649Z,17.42
2018-07-22T02:02:21.295Z,17.39
2018-07-22T02:03:29.940Z,17.37
2018-07-22T02:04:38.858Z,17.42
2018-07-22T02:05:47.506Z,17.47
2018-07-22T02:06:56.152Z,17.34
2018-07-22T02:08:04.794Z,17.34
2018-07-22T02:09:13.446Z,17.32
2018-07-22T02:10:22.094Z,17.42
2018-07-22T02:11:30.740Z,17.34
2018-07-22T02:12:39.382Z,17.38
2018-07-22T02:13:48.031Z,17.35
2018-07-22T02:14:56.677Z,17.39
2018-07-22T02:16:05.326Z,17.35
2018-07-22T02:17:13.968Z,17.37
2018-07-22T02:18:22.893Z,17.35
2018-07-22T02:19:31.526Z,17.37
2018-07-22T02:20:40.174Z,17.39
2018-07-22T02:21:48.823Z,17.37
2018-07-22T02:22:57.466Z,17.34
2018-07-22T02:24:06.112Z,17.37
2018-07-22T02:25:14.764Z,17.35
2018-07-22T02:26:23.414Z,17.37
2018-07-22T02:27:32.057Z,17.35
2018-07-22T02:28:40.967Z,17.42
2018-07-22T02:29:49.607Z,17.35
2018-07-22T02:30:58.523Z,17.31
2018-07-22T02:32:07.167Z,17.37
2018-07-22T02:33:16.351Z,17.34
2018-07-22T02:34:25.258Z,17.35
2018-07-22T02:35:33.915Z,17.38
2018-07-22T02:36:42.838Z,17.35
2018-07-22T02:37:51.752Z,17.34
2018-07-22T02:39:00.936Z,17.34
2018-07-22T02:40:09.584Z,17.31
2018-07-22T02:41:19.038Z,17.34
2018-07-22T02:42:27.684Z,17.19
2018-07-22T02:43:36.603Z,17.23
2018-07-22T02:44:45.244Z,17.3
2018-07-22T02:45:54.163Z,17.17
2018-07-22T02:47:02.806Z,17.22
2018-07-22T02:48:11.460Z,17.24
2018-07-22T02:49:20.359Z,17.22
2018-07-22T02:50:29.019Z,17.2
2018-07-22T02:51:37.981Z,17.19
2018-07-22T02:52:46.979Z,17.14
2018-07-22T02:53:55.616Z,17.17
2018-07-22T02:55:04.267Z,17.09
2018-07-22T02:56:12.918Z,17.12
2018-07-22T02:57:21.837Z,17.1
2018-07-22T02:58:30.490Z,17.09
2018-07-22T02:59:39.124Z,17.05
2018-07-22T03:00:47.775Z,17.01
2018-07-22T03:01:56.422Z,16.99
2018-07-22T03:03:05.091Z,17.01
2018-07-22T03:04:14.003Z,16.95
2018-07-22T03:05:22.659Z,16.92
2018-07-22T03:06:32.103Z,16.94
2018-07-22T03:07:41.081Z,16.98
2018-07-22T03:08:49.994Z,16.91
2018-07-22T03:09:58.644Z,17.01
2018-07-22T03:11:07.290Z,16.97
2018-07-22T03:12:15.944Z,16.98
2018-07-22T03:13:24.871Z,16.99
2018-07-22T03:14:33.518Z,16.99
2018-07-22T03:15:42.425Z,16.97
2018-07-22T03:16:51.073Z,16.95
2018-07-22T03:17:59.731Z,16.86
2018-07-22T03:19:08.370Z,16.99
2018-07-22T03:20:17.024Z,17.01
2018-07-22T03:21:25.668Z,16.99
2018-07-22T03:22:34.321Z,16.98
2018-07-22T03:23:42.962Z,16.98
2018-07-22T03:24:51.890Z,17.02
2018-07-22T03:26:01.051Z,16.92
2018-07-22T03:27:09.707Z,16.86
2018-07-22T03:28:18.352Z,16.83
2018-07-22T03:29:27.529Z,16.92
2018-07-22T03:30:36.167Z,16.89
2018-07-22T03:31:45.095Z,16.86
2018-07-22T03:32:53.747Z,16.83
2018-07-22T03:34:02.398Z,16.86
2018-07-22T03:35:11.352Z,16.86
2018-07-22T03:36:19.988Z,16.83
2018-07-22T03:37:29.171Z,16.73
2018-07-22T03:38:37.812Z,16.74
2018-07-22T03:39:46.470Z,16.77
2018-07-22T03:40:55.108Z,16.73
2018-07-22T03:42:03.758Z,16.77
2018-07-22T03:43:12.664Z,16.73
2018-07-22T03:44:21.320Z,16.74
2018-07-22T03:45:29.964Z,16.73
2018-07-22T03:46:38.615Z,16.72
2018-07-22T03:47:47.259Z,16.76
2018-07-22T03:48:55.909Z,16.74
2018-07-22T03:50:04.552Z,16.69
2018-07-22T03:51:13.198Z,16.79
2018-07-22T03:52:21.843Z,16.76
2018-07-22T03:53:30.487Z,16.77
2018-07-22T03:54:39.138Z,16.77
2018-07-22T03:55:47.782Z,16.79
2018-07-22T03:56:56.427Z,16.77
2018-07-22T03:58:05.068Z,16.76
2018-07-22T03:59:13.988Z,16.74
2018-07-22T04:00:22.632Z,16.77
2018-07-22T04:01:31.290Z,16.74
2018-07-22T04:02:40.196Z,16.77
2018-07-22T04:03:48.847Z,16.74
2018-07-22T04:04:57.491Z,16.77
2018-07-22T04:06:06.414Z,16.73
2018-07-22T04:07:15.057Z,16.74
2018-07-22T04:08:23.707Z,16.74
2018-07-22T04:09:32.354Z,16.69
2018-07-22T04:10:41.001Z,16.76
2018-07-22T04:11:49.650Z,16.76
2018-07-22T04:12:58.291Z,16.77
2018-07-22T04:14:06.938Z,16.73
2018-07-22T04:15:15.853Z,16.84
2018-07-22T04:16:24.496Z,16.82
2018-07-22T04:17:33.138Z,16.89
2018-07-22T04:18:41.784Z,16.86
2018-07-22T04:19:50.436Z,16.82
2018-07-22T04:20:59.083Z,16.87
2018-07-22T04:22:09.151Z,16.87
2018-07-22T04:23:18.072Z,16.87
2018-07-22T04:24:26.721Z,16.89
2018-07-22T04:25:35.633Z,16.86
2018-07-22T04:26:44.278Z,16.94
2018-07-22T04:27:52.922Z,17.01
2018-07-22T04:29:01.570Z,16.95
2018-07-22T04:30:10.473Z,17.02
2018-07-22T04:31:19.126Z,17.01
2018-07-22T04:32:27.769Z,16.99
2018-07-22T04:33:36.680Z,16.97
2018-07-22T04:34:45.322Z,17.02
2018-07-22T04:35:53.973Z,17.05
2018-07-22T04:37:02.622Z,17.04
2018-07-22T04:38:11.533Z,17.09
2018-07-22T04:39:20.174Z,16.99
2018-07-22T04:40:28.823Z,17.01
2018-07-22T04:41:37.467Z,17.09
2018-07-22T04:42:46.115Z,17.04
2018-07-22T04:43:55.027Z,17.13
2018-07-22T04:45:03.945Z,17.05
2018-07-22T04:46:12.590Z,17.14
2018-07-22T04:47:21.234Z,17.17
2018-07-22T04:48:30.413Z,17.16
2018-07-22T04:49:39.064Z,17.2
2018-07-22T04:50:47.711Z,17.22
2018-07-22T04:51:56.357Z,17.23
2018-07-22T04:53:04.997Z,17.22
2018-07-22T04:54:13.649Z,17.17
2018-07-22T04:55:22.290Z,17.27
2018-07-22T04:56:30.944Z,17.28
2018-07-22T04:57:39.585Z,17.31
2018-07-22T04:58:48.500Z,17.42
2018-07-22T04:59:57.142Z,17.37
2018-07-22T05:01:05.795Z,17.37
2018-07-22T05:02:14.696Z,17.34
2018-07-22T05:03:23.346Z,17.39
2018-07-22T05:04:33.743Z,17.38
2018-07-22T05:05:42.399Z,17.38
2018-07-22T05:06:51.308Z,17.32
2018-07-22T05:08:00.214Z,17.47
2018-07-22T05:09:09.127Z,17.46
2018-07-22T05:10:18.038Z,17.42
2018-07-22T05:11:26.692Z,17.49
2018-07-22T05:12:35.332Z,17.54
2018-07-22T05:13:43.983Z,17.57
2018-07-22T05:14:52.625Z,17.68
2018-07-22T05:16:01.280Z,17.6
2018-07-22T05:17:09.916Z,17.59
2018-07-22T05:18:18.824Z,17.68
2018-07-22T05:19:27.468Z,17.76
2018-07-22T05:20:36.121Z,17.75
2018-07-22T05:21:44.764Z,17.75
2018-07-22T05:22:53.410Z,17.78
2018-07-22T05:24:02.055Z,17.79
2018-07-22T05:25:10.700Z,17.88
2018-07-22T05:26:19.353Z,17.82
2018-07-22T05:27:28.000Z,17.97
2018-07-22T05:28:36.909Z,17.93
2018-07-22T05:29:45.560Z,18.03
2018-07-22T05:30:54.201Z,18.02
2018-07-22T05:32:02.849Z,18.09
2018-07-22T05:33:11.494Z,18.11
2018-07-22T05:34:20.138Z,18.11
2018-07-22T05:35:28.788Z,18.05
2018-07-22T05:36:37.433Z,18.03
2018-07-22T05:37:46.345Z,18.08
2018-07-22T05:38:54.990Z,18.05
2018-07-22T05:40:03.638Z,18.18
2018-07-22T05:41:12.284Z,18.18
2018-07-22T05:42:21.202Z,18.13
2018-07-22T05:43:29.852Z,18.21
2018-07-22T05:44:38.493Z,18.18
2018-07-22T05:45:47.150Z,18.24
2018-07-22T05:46:55.795Z,18.23
2018-07-22T05:48:04.711Z,18.26
2018-07-22T05:49:13.349Z,18.3
2018-07-22T05:50:22.006Z,18.36
2018-07-22T05:51:30.645Z,18.42
2018-07-22T05:52:39.299Z,18.43
2018-07-22T05:53:47.936Z,18.41
2018-07-22T05:54:56.587Z,18.55
2018-07-22T05:56:05.231Z,18.53
2018-07-22T05:57:13.891Z,18.51
2018-07-22T05:58:22.813Z,18.57
2018-07-22T05:59:31.453Z,18.63
2018-07-22T06:00:40.099Z,18.58
2018-07-22T06:01:48.751Z,18.66
2018-07-22T06:02:57.402Z,18.66
2018-07-22T06:04:06.309Z,18.68
2018-07-22T06:05:14.963Z,18.7
2018-07-22T06:06:23.600Z,18.67
2018-07-22T06:07:32.256Z,18.71
2018-07-22T06:08:40.901Z,18.7
2018-07-22T06:09:49.551Z,18.73
2018-07-22T06:10:58.189Z,18.79
2018-07-22T06:12:07.218Z,18.81
2018-07-22T06:13:15.824Z,18.86
2018-07-22T06:14:24.475Z,18.97
2018-07-22T06:15:33.115Z,19
2018-07-22T06:16:41.779Z,19.01
2018-07-22T06:17:50.418Z,19.04
2018-07-22T06:18:59.086Z,19.12
2018-07-22T06:20:07.737Z,19.08
2018-07-22T06:21:16.374Z,19.11
2018-07-22T06:22:25.036Z,19.17
2018-07-22T06:23:33.772Z,19.22
2018-07-22T06:24:42.751Z,19.17
2018-07-22T06:25:51.389Z,19.12
2018-07-22T06:27:00.042Z,19.26
2018-07-22T06:28:08.684Z,19.23
2018-07-22T06:29:17.350Z,19.37
2018-07-22T06:30:25.983Z,19.45
2018-07-22T06:31:34.642Z,19.39
2018-07-22T06:32:43.277Z,19.35
2018-07-22T06:33:52.196Z,19.35
2018-07-22T06:35:00.842Z,19.38
2018-07-22T06:36:09.755Z,19.39
2018-07-22T06:37:18.403Z,19.48
2018-07-22T06:38:27.061Z,19.52
2018-07-22T06:39:35.716Z,19.59
2018-07-22T06:40:44.360Z,19.55
2018-07-22T06:41:53.011Z,19.66
2018-07-22T06:43:01.653Z,19.62
2018-07-22T06:44:10.310Z,19.72
2018-07-22T06:45:19.225Z,19.74
2018-07-22T06:46:27.870Z,19.75
2018-07-22T06:47:36.515Z,19.84
2018-07-22T06:48:45.174Z,19.84
2018-07-22T06:49:54.355Z,20
2018-07-22T06:51:03.007Z,19.93
2018-07-22T06:52:11.651Z,20.02
2018-07-22T06:53:20.303Z,20.04
2018-07-22T06:54:28.952Z,20.02
2018-07-22T06:55:37.601Z,20
2018-07-22T06:56:46.251Z,20.04
2018-07-22T06:57:54.893Z,20.11
2018-07-22T06:59:03.540Z,20.14
2018-07-22T07:00:12.192Z,20.22
2018-07-22T07:01:20.846Z,20.18
2018-07-22T07:02:29.488Z,20.22
2018-07-22T07:03:38.137Z,20.27
2018-07-22T07:04:46.788Z,20.22
2018-07-22T07:05:55.438Z,20.21
2018-07-22T07:07:04.085Z,20.29
2018-07-22T07:08:12.732Z,20.32
2018-07-22T07:09:21.644Z,20.36
2018-07-22T07:10:30.294Z,20.34
2018-07-22T07:11:38.941Z,20.44
2018-07-22T07:12:47.591Z,20.46
2018-07-22T07:13:56.238Z,20.5
2018-07-22T07:15:04.887Z,20.53
2018-07-22T07:16:13.539Z,20.55
2018-07-22T07:17:22.189Z,20.53
2018-07-22T07:18:30.838Z,20.53
2018-07-22T07:19:39.483Z,20.6
2018-07-22T07:20:48.470Z,20.6
2018-07-22T07:21:57.442Z,20.63
2018-07-22T07:23:06.091Z,20.67
2018-07-22T07:24:14.736Z,20.73
2018-07-22T07:25:23.390Z,20.85
2018-07-22T07:26:32.038Z,20.86
2018-07-22T07:27:40.688Z,20.82
2018-07-22T07:28:49.330Z,20.82
2018-07-22T07:29:58.254Z,20.8
2018-07-22T07:31:06.902Z,20.9
2018-07-22T07:32:15.555Z,20.93
2018-07-22T07:33:24.206Z,20.89
2018-07-22T07:34:32.850Z,20.9
2018-07-22T07:35:41.500Z,21
2018-07-22T07:36:50.416Z,21.08
2018-07-22T07:37:59.069Z,21.11
2018-07-22T07:39:07.709Z,21.17
2018-07-22T07:40:16.368Z,21.2
2018-07-22T07:41:25.272Z,21.26
2018-07-22T07:42:33.934Z,21.3
2018-07-22T07:43:42.579Z,21.22
2018-07-22T07:44:51.231Z,21.35
2018-07-22T07:45:59.884Z,21.37
2018-07-22T07:47:08.538Z,21.45
2018-07-22T07:48:17.185Z,21.4
2018-07-22T07:49:25.836Z,21.38
2018-07-22T07:50:34.485Z,21.44
2018-07-22T07:51:43.131Z,21.47
2018-07-22T07:52:51.789Z,21.54
2018-07-22T07:54:00.437Z,21.54
2018-07-22T07:55:09.089Z,21.56
2018-07-22T07:56:17.731Z,21.66
2018-07-22T07:57:26.389Z,21.6
2018-07-22T07:58:35.035Z,21.65
2018-07-22T07:59:43.690Z,21.7
2018-07-22T08:00:52.331Z,21.69
2018-07-22T08:02:00.991Z,21.7
2018-07-22T08:03:09.640Z,21.78
2018-07-22T08:04:18.291Z,21.75
2018-07-22T08:05:26.983Z,21.83
2018-07-22T08:06:35.970Z,21.84
2018-07-22T08:07:44.621Z,21.84
2018-07-22T08:08:53.273Z,22
2018-07-22T08:10:01.927Z,22
2018-07-22T08:11:10.829Z,22.04
2018-07-22T08:12:19.749Z,22.1
2018-07-22T08:13:28.393Z,22.06
2018-07-22T08:14:37.047Z,22.14
2018-07-22T08:15:45.689Z,22.08
2018-07-22T08:16:54.341Z,22.14
2018-07-22T08:18:02.989Z,22.14
2018-07-22T08:19:11.695Z,22.14
2018-07-22T08:20:20.290Z,22.19
2018-07-22T08:21:29.269Z,22.23
2018-07-22T08:22:37.859Z,22.23
2018-07-22T08:23:46.519Z,22.26
2018-07-22T08:24:55.425Z,22.4
2018-07-22T08:26:04.124Z,22.34
2018-07-22T08:27:12.723Z,22.46
2018-07-22T08:28:21.634Z,22.51
2018-07-22T08:29:30.296Z,22.55
2018-07-22T08:30:39.730Z,22.59
2018-07-22T08:31:48.643Z,22.58
2018-07-22T08:32:57.284Z,22.62
2018-07-22T08:34:06.209Z,22.7
2018-07-22T08:35:14.856Z,22.73
2018-07-22T08:36:23.512Z,22.78
2018-07-22T08:37:32.167Z,22.88
2018-07-22T08:38:40.806Z,22.86
2018-07-22T08:39:49.460Z,22.88
2018-07-22T08:40:58.107Z,22.98
2018-07-22T08:42:06.766Z,22.93
2018-07-22T08:43:15.412Z,22.98
2018-07-22T08:44:24.061Z,23.02
2018-07-22T08:45:32.977Z,23.04
2018-07-22T08:46:41.625Z,23.1
2018-07-22T08:47:50.287Z,23.14
2018-07-22T08:48:58.930Z,23.16
2018-07-22T08:50:07.585Z,23.17
2018-07-22T08:51:16.227Z,23.23
2018-07-22T08:52:24.883Z,23.23
2018-07-22T08:53:33.793Z,23.33
2018-07-22T08:54:42.449Z,23.23
2018-07-22T08:55:51.092Z,23.29
2018-07-22T08:57:00.024Z,23.32
2018-07-22T08:58:08.672Z,23.37
2018-07-22T08:59:17.325Z,23.47
2018-07-22T09:00:25.964Z,23.48
2018-07-22T09:01:34.617Z,23.55
2018-07-22T09:02:43.270Z,23.54
2018-07-22T09:03:51.923Z,23.51
2018-07-22T09:05:00.843Z,23.54
2018-07-22T09:06:09.744Z,23.66
2018-07-22T09:07:18.400Z,23.58
2018-07-22T09:08:27.046Z,23.67
2018-07-22T09:09:35.706Z,23.59
2018-07-22T09:10:44.354Z,23.67
2018-07-22T09:11:53.160Z,23.67
2018-07-22T09:13:01.650Z,23.69
2018-07-22T09:14:10.581Z,23.71
2018-07-22T09:15:19.487Z,23.79
2018-07-22T09:16:28.139Z,23.76
2018-07-22T09:17:36.795Z,23.81
2018-07-22T09:18:45.761Z,23.86
2018-07-22T09:19:54.403Z,23.89
2018-07-22T09:21:03.048Z,24.03
2018-07-22T09:22:11.697Z,23.94
2018-07-22T09:23:20.346Z,23.95
2018-07-22T09:24:29.007Z,24.01
2018-07-22T09:25:37.654Z,24.09
2018-07-22T09:26:46.311Z,24.13
2018-07-22T09:27:54.952Z,24.09
2018-07-22T09:29:03.619Z,24.13
2018-07-22T09:30:12.261Z,24.26
2018-07-22T09:31:20.920Z,24.24
2018-07-22T09:32:29.825Z,24.26
2018-07-22T09:33:38.486Z,24.28
2018-07-22T09:34:47.132Z,24.46
2018-07-22T09:35:55.794Z,24.44
2018-07-22T09:37:04.692Z,24.51
2018-07-22T09:38:13.346Z,24.51
2018-07-22T09:39:22.257Z,24.55
2018-07-22T09:40:30.929Z,24.66
2018-07-22T09:41:39.583Z,24.68
2018-07-22T09:42:48.231Z,24.74
2018-07-22T09:43:56.884Z,24.69
2018-07-22T09:45:05.533Z,24.79
2018-07-22T09:46:14.186Z,24.85
2018-07-22T09:47:23.096Z,24.89
2018-07-22T09:48:31.745Z,24.92
2018-07-22T09:49:40.395Z,24.93
2018-07-22T09:50:49.054Z,25
2018-07-22T09:51:57.700Z,25.06
2018-07-22T09:53:06.629Z,25.16
2018-07-22T09:54:15.278Z,25.21
2018-07-22T09:55:23.933Z,25.33
2018-07-22T09:56:32.583Z,25.4
2018-07-22T09:57:41.236Z,25.31
2018-07-22T09:58:49.888Z,25.43
2018-07-22T09:59:58.539Z,25.46
2018-07-22T10:01:07.199Z,25.52
2018-07-22T10:02:15.847Z,25.49
2018-07-22T10:03:24.499Z,25.54
2018-07-22T10:04:33.192Z,25.56
2018-07-22T10:05:41.804Z,25.62
2018-07-22T10:06:50.459Z,25.59
2018-07-22T10:07:59.114Z,25.54
2018-07-22T10:09:08.029Z,25.49
2018-07-22T10:10:16.683Z,25.68
2018-07-22T10:11:25.333Z,25.63
2018-07-22T10:12:34.003Z,25.62
2018-07-22T10:13:42.650Z,25.61
2018-07-22T10:14:51.373Z,25.62
2018-07-22T10:15:59.966Z,25.44
2018-07-22T10:17:09.150Z,25.63
2018-07-22T10:18:17.802Z,25.62
2018-07-22T10:19:26.451Z,25.67
2018-07-22T10:20:35.107Z,25.66
2018-07-22T10:21:43.761Z,25.68
2018-07-22T10:22:52.417Z,25.7
2018-07-22T10:24:01.068Z,25.76
2018-07-22T10:25:09.722Z,25.77
2018-07-22T10:26:18.373Z,25.74
2018-07-22T10:27:27.029Z,25.81
2018-07-22T10:28:35.727Z,25.89
2018-07-22T10:29:44.330Z,25.93
2018-07-22T10:30:52.982Z,25.96
2018-07-22T10:32:01.902Z,26.04
2018-07-22T10:33:10.553Z,26.1
2018-07-22T10:34:19.208Z,26.06
2018-07-22T10:35:27.854Z,26.1
2018-07-22T10:36:36.506Z,26.19
2018-07-22T10:37:45.169Z,26.19
2018-07-22T10:38:53.814Z,26.22
2018-07-22T10:40:02.466Z,26.29
2018-07-22T10:41:11.109Z,26.19
2018-07-22T10:42:19.769Z,26.42
2018-07-22T10:43:28.418Z,26.44
2018-07-22T10:44:37.082Z,26.55
2018-07-22T10:45:45.992Z,26.6
2018-07-22T10:46:54.649Z,26.6
2018-07-22T10:48:03.300Z,26.56
2018-07-22T10:49:11.954Z,26.55
2018-07-22T10:50:20.598Z,26.6
2018-07-22T10:51:29.253Z,26.71
2018-07-22T10:52:37.911Z,26.74
2018-07-22T10:53:46.568Z,26.81
2018-07-22T10:54:55.762Z,26.78
2018-07-22T10:56:04.406Z,26.76
2018-07-22T10:57:13.322Z,26.76
2018-07-22T10:58:22.236Z,26.82
2018-07-22T10:59:31.164Z,26.83
2018-07-22T11:00:39.809Z,26.85
2018-07-22T11:01:48.472Z,26.97
2018-07-22T11:02:57.382Z,26.93
2018-07-22T11:04:06.313Z,26.92
2018-07-22T11:05:14.957Z,27.03
2018-07-22T11:06:23.612Z,27.1
2018-07-22T11:07:32.261Z,27.11
2018-07-22T11:08:40.923Z,27.23
2018-07-22T11:09:49.575Z,27.26
2018-07-22T11:10:58.484Z,27.25
2018-07-22T11:12:07.136Z,27.35
2018-07-22T11:13:15.786Z,27.26
2018-07-22T11:14:24.747Z,27.34
2018-07-22T11:15:33.367Z,27.28
2018-07-22T11:16:42.292Z,27.22
2018-07-22T11:17:51.204Z,27.1
2018-07-22T11:18:59.868Z,26.89
2018-07-22T11:20:08.519Z,26.88
2018-07-22T11:21:17.284Z,26.67
2018-07-22T11:22:26.446Z,26.76
2018-07-22T11:23:35.108Z,26.97
2018-07-22T11:24:43.760Z,27.11
2018-07-22T11:25:52.415Z,27.2
2018-07-22T11:27:01.061Z,27.33
2018-07-22T11:28:09.724Z,27.34
2018-07-22T11:29:18.386Z,27.63
2018-07-22T11:30:27.044Z,27.71
2018-07-22T11:31:35.702Z,27.72
2018-07-22T11:32:44.348Z,27.66
2018-07-22T11:33:53.004Z,27.76
2018-07-22T11:35:01.680Z,27.83
2018-07-22T11:36:10.338Z,27.83
2018-07-22T11:37:18.988Z,27.79
2018-07-22T11:38:27.915Z,27.72
2018-07-22T11:39:36.564Z,27.73
2018-07-22T11:40:45.221Z,27.61
2018-07-22T11:41:53.870Z,27.57
2018-07-22T11:43:02.789Z,27.37
2018-07-22T11:44:11.438Z,27.33
2018-07-22T11:45:20.097Z,27.22
2018-07-22T11:46:28.748Z,27.25
2018-07-22T11:47:37.404Z,27.19
2018-07-22T11:48:46.055Z,27.15
2018-07-22T11:49:54.705Z,27.15
2018-07-22T11:51:03.626Z,27.19
2018-07-22T11:52:12.278Z,27.25
2018-07-22T11:53:20.936Z,27.2
2018-07-22T11:54:29.584Z,27.22
2018-07-22T11:55:38.242Z,27.28
2018-07-22T11:56:46.902Z,27.41
2018-07-22T11:57:55.556Z,27.38
2018-07-22T11:59:04.475Z,27.47
2018-07-22T12:00:13.779Z,27.41
2018-07-22T12:01:22.416Z,27.34
2018-07-22T12:02:31.022Z,27.41
2018-07-22T12:03:39.673Z,27.26
2018-07-22T12:04:48.330Z,27.22
2018-07-22T12:05:57.363Z,27.19
2018-07-22T12:07:05.967Z,27.25
2018-07-22T12:08:14.625Z,27.41
2018-07-22T12:09:23.537Z,27.47
2018-07-22T12:10:32.452Z,27.48
2018-07-22T12:11:41.108Z,27.55
2018-07-22T12:12:49.765Z,27.55
2018-07-22T12:13:58.413Z,27.47
2018-07-22T12:15:07.070Z,27.5
2018-07-22T12:16:15.720Z,27.44
2018-07-22T12:17:24.375Z,27.48
2018-07-22T12:18:33.023Z,27.44
2018-07-22T12:19:41.679Z,27.53
2018-07-22T12:20:50.331Z,27.64
2018-07-22T12:21:58.990Z,27.73
2018-07-22T12:23:07.642Z,27.78
2018-07-22T12:24:16.297Z,27.81
2018-07-22T12:25:24.948Z,27.75
2018-07-22T12:26:33.860Z,27.83
2018-07-22T12:27:42.520Z,27.85
2018-07-22T12:28:51.174Z,27.93
2018-07-22T12:29:59.829Z,27.9
2018-07-22T12:31:08.482Z,27.93
2018-07-22T12:32:17.403Z,27.9
2018-07-22T12:33:26.058Z,27.85
2018-07-22T12:34:34.718Z,27.79
2018-07-22T12:35:43.374Z,27.76
2018-07-22T12:36:52.018Z,27.73
2018-07-22T12:38:00.679Z,27.64
2018-07-22T12:39:09.333Z,27.66
2018-07-22T12:40:18.000Z,27.52
2018-07-22T12:41:26.648Z,27.58
2018-07-22T12:42:35.301Z,27.6
2018-07-22T12:43:43.951Z,27.61
2018-07-22T12:44:52.604Z,27.76
2018-07-22T12:46:01.259Z,27.94
2018-07-22T12:47:09.916Z,28.04
2018-07-22T12:48:18.571Z,28.09
2018-07-22T12:49:27.219Z,28.28
2018-07-22T12:50:35.884Z,28.3
2018-07-22T12:51:44.534Z,28.28
2018-07-22T12:52:53.188Z,28.28
2018-07-22T12:54:01.841Z,28.16
2018-07-22T12:55:10.499Z,28.19
2018-07-22T12:56:19.158Z,28.18
2018-07-22T12:57:27.813Z,28.19
2018-07-22T12:58:36.464Z,28.28
2018-07-22T12:59:45.122Z,28.43
2018-07-22T13:00:53.782Z,28.41
2018-07-22T13:02:02.438Z,28.57
2018-07-22T13:03:11.099Z,28.72
2018-07-22T13:04:20.539Z,28.82
2018-07-22T13:05:29.195Z,28.96
2018-07-22T13:06:37.858Z,29
2018-07-22T13:07:46.511Z,29.13
2018-07-22T13:08:55.164Z,29.28
2018-07-22T13:10:04.081Z,29.27
2018-07-22T13:11:12.738Z,29.32
2018-07-22T13:12:21.398Z,29.18
2018-07-22T13:13:30.049Z,29.12
2018-07-22T13:14:38.975Z,29.12
2018-07-22T13:15:47.630Z,29.02
2018-07-22T13:16:56.289Z,29
2018-07-22T13:18:04.941Z,28.94
2018-07-22T13:19:13.596Z,28.92
2018-07-22T13:20:22.251Z,28.74
2018-07-22T13:21:30.902Z,28.64
2018-07-22T13:22:39.562Z,28.52
2018-07-22T13:23:48.220Z,28.52
2018-07-22T13:24:56.872Z,28.43
2018-07-22T13:26:05.520Z,28.34
2018-07-22T13:27:14.184Z,28.33
2018-07-22T13:28:22.836Z,28.28
2018-07-22T13:29:31.492Z,28.33
2018-07-22T13:30:40.141Z,28.45
2018-07-22T13:31:48.805Z,28.38
2018-07-22T13:32:57.717Z,28.38
2018-07-22T13:34:06.375Z,28.34
2018-07-22T13:35:15.282Z,28.19
2018-07-22T13:36:23.940Z,28.19
2018-07-22T13:37:32.598Z,28.15
2018-07-22T13:38:41.257Z,28.2
2018-07-22T13:39:49.918Z,28.13
2018-07-22T13:40:58.563Z,28.08
2018-07-22T13:42:07.239Z,28.16
2018-07-22T13:43:15.878Z,28.09
2018-07-22T13:44:24.542Z,28.19
2018-07-22T13:45:33.271Z,28.28
2018-07-22T13:46:42.210Z,28.45
2018-07-22T13:47:51.127Z,28.56
2018-07-22T13:48:59.792Z,28.65
2018-07-22T13:50:08.702Z,28.72
2018-07-22T13:51:17.358Z,28.75
2018-07-22T13:52:26.011Z,28.78
2018-07-22T13:53:34.674Z,28.72
2018-07-22T13:54:43.332Z,28.68
2018-07-22T13:55:52.239Z,28.64
2018-07-22T13:57:00.914Z,28.52
2018-07-22T13:58:09.548Z,28.5
2018-07-22T13:59:18.999Z,28.5
2018-07-22T14:00:27.671Z,28.3
2018-07-22T14:01:36.655Z,28.3
2018-07-22T14:02:45.299Z,28.22
2018-07-22T14:03:53.965Z,28.15
2018-07-22T14:05:02.616Z,28.1
2018-07-22T14:06:11.276Z,28.08
2018-07-22T14:07:19.976Z,28.04
2018-07-22T14:08:28.586Z,28.04
2018-07-22T14:09:37.239Z,28.12
2018-07-22T14:10:45.900Z,28.12
2018-07-22T14:11:54.856Z,28.25
2018-07-22T14:13:03.765Z,28.2
2018-07-22T14:14:12.423Z,28.34
2018-07-22T14:15:21.080Z,28.45
2018-07-22T14:16:29.736Z,28.49
2018-07-22T14:17:38.380Z,28.5
2018-07-22T14:18:47.305Z,28.59
2018-07-22T14:19:55.956Z,28.5
2018-07-22T14:21:04.619Z,28.37
2018-07-22T14:22:13.264Z,28.4
2018-07-22T14:23:21.923Z,28.27
2018-07-22T14:24:30.573Z,28.22
2018-07-22T14:25:39.498Z,28.16
2018-07-22T14:26:48.413Z,28.08
2018-07-22T14:27:57.082Z,28.08
2018-07-22T14:29:05.721Z,28.04
2018-07-22T14:30:14.372Z,27.94
2018-07-22T14:31:23.027Z,27.88
2018-07-22T14:32:31.944Z,27.83
2018-07-22T14:33:40.601Z,27.76
2018-07-22T14:34:49.258Z,27.78
2018-07-22T14:35:57.907Z,27.83
2018-07-22T14:37:06.568Z,27.75
2018-07-22T14:38:15.218Z,27.78
2018-07-22T14:39:24.138Z,27.75
2018-07-22T14:40:33.055Z,27.76
2018-07-22T14:41:41.979Z,27.71
2018-07-22T14:42:50.639Z,27.76
2018-07-22T14:43:59.581Z,27.78
2018-07-22T14:45:08.214Z,27.76
2018-07-22T14:46:16.872Z,27.61
2018-07-22T14:47:25.519Z,27.63
2018-07-22T14:48:34.183Z,27.66